Nearby METAR Reports

 

KSJC - San Jose, California, USA
Distance from station: NE 14km
Updated: 09/05/2021 15:53
Few Clouds
Few Clouds
 Wind from NW
Wind: NW 7 km/h
Temperature: 13°C
Dew Point: 9°C
Humidity: 77%
Barometer: 1015.2 hPa
Clouds: Few Clouds
Visibility: 14 km
Cloud details: Few Clouds 2134 m
Few Clouds 3658 m
2021/05/09 13:53 KSJC 091353Z 32004KT 9SM FEW070 FEW120 13/09 A2998 RMK AO2 SLP150 T01330089
KNUQ - Moffett Nas/Mtn, California, USA
Distance from station: N 14km
Updated: 14/04/2021 00:40
NOT Current

 
2021/04/13 22:40 KNUQ 132240Z AUTO RMK AO2 PNO PWINO TSNO
 
KPAO - Palo Alto, California, USA
Distance from station: NNW 23km
Updated: 09/05/2021 15:47
Clear
Clear
 Wind from calm
Wind: Calm
Temperature: 11°C
Dew Point: 8°C
Humidity: 82%
Barometer: 1015.2 hPa
Clouds: Clear
Visibility: 16 km
2021/05/09 13:47 KPAO 091347Z 00000KT 10SM SKC 11/08 A2998
KRHV - San Jose/Reid, California, USA
Distance from station: ENE 19km
Updated: 09/05/2021 15:55
Clear
Clear
 Wind from calm
Wind: Calm
Temperature: 12°C
Dew Point: 7°C
Humidity: 72%
Barometer: 1015.2 hPa
Clouds: Clear
Visibility: 16 km
2021/05/09 13:55 KRHV 091355Z 00000KT 10SM SKC 12/07 A2998
 
KOAK - Oakland, California, USA
Distance from station: NNW 50km
Updated: 09/05/2021 15:53
Partly cloudy
Partly cloudy
 Wind from calm
Wind: Calm
Temperature: 13°C
Dew Point: 9°C
Humidity: 77%
Barometer: 1015.2 hPa
Clouds: Partly cloudy
Visibility: 16 km
Cloud details: Partly cloudy 9144 m
2021/05/09 13:53 KOAK 091353Z 00000KT 10SM SCT300 13/09 A2998 RMK AO2 SLP151 T01330094
KSQL - San Carlos Airpo, California, USA
Distance from station: NW 34km
Updated: 09/05/2021 15:55
Clear
Clear
 Wind from calm
Wind: Calm
Temperature: 13°C
Dew Point: 6°C
Humidity: 63%
Barometer: 1015.6 hPa
Clouds: Clear
Visibility: 16 km
2021/05/09 13:55 KSQL 091355Z AUTO 00000KT 10SM CLR 13/06 A2999 RMK AO2
 
KSFO - San Francisco, California, USA
Distance from station: NW 49km
Updated: 09/05/2021 15:56
Partly cloudy
Partly cloudy
 Wind from WNW
Wind: WNW 26 km/h
Temperature: 13°C
Dew Point: 7°C
Humidity: 67%
Barometer: 1014.9 hPa
Clouds: Partly cloudy
Visibility: 16 km
Cloud details: Few Clouds 335 m
Partly cloudy 6096 m
2021/05/09 13:56 KSFO 091356Z 30014KT 10SM FEW011 SCT200 13/07 A2997 RMK AO2 SLP150 T01280072
KE16 - San Martin, California, USA
Distance from station: ESE 43km
Updated: 09/05/2021 15:35
Clear
Clear
 Wind from calm
Wind: Calm
Temperature: 12°C
Dew Point: 8°C
Humidity: 77%
Barometer: 1015.6 hPa
Clouds: Clear
Visibility: 16 km
2021/05/09 13:35 KE16 091335Z AUTO 00000KT 10SM CLR 12/08 A2999 RMK AO2 PWINO PNO
 
KWVI - Watsonville, California, USA
Distance from station: SSE 44km
Updated: 09/05/2021 15:53
Clear
Clear
 Wind from calm
Wind: Calm
Temperature: 9°C
Dew Point: 7°C
Humidity: 87%
Barometer: 1014.9 hPa
Clouds: Clear
Visibility: 16 km
2021/05/09 13:53 KWVI 091353Z AUTO 00000KT 10SM CLR 09/07 A2997 RMK AO2 SLP150 T00890067
KHAF - Half Moon Bay, California, USA
Distance from station: WNW 50km
Updated: 09/05/2021 15:55
Haze, Clear
Haze, Clear
 Wind from NNW
Wind: NNW 11 km/h
Temperature: 10°C
Wind Chill: 8°C
Dew Point: 8°C
Humidity: 88%
Barometer: 1015.9 hPa
Summary: Haze
Clouds: Clear
Visibility: 4 km
2021/05/09 13:55 KHAF 091355Z AUTO 33006KT 2 1/2SM HZ CLR 10/08 A3000 RMK AO2
 
KHWD - Hayward, California, USA
Distance from station: N 44km
Updated: 09/05/2021 15:54
Clear
Clear
 Wind from calm
Wind: Calm
Temperature: 12°C
Dew Point: 8°C
Humidity: 77%
Barometer: 1014.9 hPa
Clouds: Clear
Visibility: 16 km
2021/05/09 13:54 KHWD 091354Z 00000KT 10SM CLR 12/08 A2997 RMK AO2 SLP158 T01220083
KLVK - Livermore, California, USA
Distance from station: NNE 51km
Updated: 09/05/2021 15:53
Clear
Clear
 Wind from calm
Wind: Calm
Temperature: 13°C
Dew Point: 5°C
Humidity: 59%
Barometer: 1014.6 hPa
Clouds: Clear
Visibility: 16 km
2021/05/09 13:53 KLVK 091353Z 00000KT 10SM CLR 13/05 A2996 RMK AO2 SLP143 T01280050